createdAt,value
2019-05-14T00:01:32.173Z,10.48
2019-05-14T00:03:58.765Z,10.45
2019-05-14T00:06:25.346Z,10.43
2019-05-14T00:08:52.333Z,10.43
2019-05-14T00:11:19.016Z,10.40
2019-05-14T00:13:45.614Z,10.40
2019-05-14T00:16:12.197Z,10.35
2019-05-14T00:18:38.805Z,10.32
2019-05-14T00:21:05.382Z,10.30
2019-05-14T00:23:32.189Z,10.29
2019-05-14T00:25:58.851Z,10.26
2019-05-14T00:28:25.440Z,10.26
2019-05-14T00:30:52.568Z,10.24
2019-05-14T00:33:19.196Z,10.21
2019-05-14T00:35:45.859Z,10.15
2019-05-14T00:38:12.455Z,10.11
2019-05-14T00:40:39.032Z,10.07
2019-05-14T00:43:05.598Z,10.05
2019-05-14T00:45:32.206Z,10.02
2019-05-14T00:47:58.779Z,10.00
2019-05-14T00:50:25.373Z,10.00
2019-05-14T00:52:51.950Z,10.00
2019-05-14T00:55:18.569Z,9.98
2019-05-14T00:57:45.141Z,9.99
2019-05-14T01:00:11.841Z,9.98
2019-05-14T01:02:38.484Z,9.98
2019-05-14T01:05:05.078Z,9.96
2019-05-14T01:07:31.725Z,9.94
2019-05-14T01:09:58.343Z,9.92
2019-05-14T01:12:24.912Z,9.91
2019-05-14T01:15:05.645Z,9.91
2019-05-14T01:17:19.838Z,9.90
2019-05-14T01:19:46.445Z,9.90
2019-05-14T01:22:13.018Z,9.88
2019-05-14T01:24:41.711Z,9.89
2019-05-14T01:27:07.922Z,9.87
2019-05-14T01:29:34.531Z,9.86
2019-05-14T01:32:01.371Z,9.84
2019-05-14T01:34:28.091Z,9.82
2019-05-14T01:36:54.666Z,9.81
2019-05-14T01:39:21.392Z,9.79
2019-05-14T01:41:48.027Z,9.77
2019-05-14T01:44:14.645Z,9.73
2019-05-14T01:46:42.037Z,9.69
2019-05-14T01:49:08.891Z,9.66
2019-05-14T01:51:35.471Z,9.64
2019-05-14T01:54:02.104Z,9.63
2019-05-14T01:56:28.709Z,9.61
2019-05-14T01:58:55.308Z,9.60
2019-05-14T02:01:22.049Z,9.59
2019-05-14T02:03:48.658Z,9.58
2019-05-14T02:06:15.229Z,9.56
2019-05-14T02:08:41.804Z,9.54
2019-05-14T02:11:08.423Z,9.51
2019-05-14T02:13:34.991Z,9.50
2019-05-14T02:16:02.181Z,9.48
2019-05-14T02:18:31.094Z,9.48
2019-05-14T02:20:57.702Z,9.46
2019-05-14T02:23:24.283Z,9.46
2019-05-14T02:25:51.838Z,9.45
2019-05-14T02:28:18.656Z,9.43
2019-05-14T02:30:55.945Z,9.43
2019-05-14T02:33:13.545Z,9.42
2019-05-14T02:35:40.139Z,9.40
2019-05-14T02:38:09.982Z,9.40
2019-05-14T02:40:35.043Z,9.38
2019-05-14T02:43:01.627Z,9.35
2019-05-14T02:45:30.353Z,9.33
2019-05-14T02:47:59.942Z,9.32
2019-05-14T02:50:24.892Z,9.30
2019-05-14T02:52:51.455Z,9.29
2019-05-14T02:55:19.384Z,9.26
2019-05-14T02:57:46.230Z,9.27
2019-05-14T03:00:12.893Z,9.26
2019-05-14T03:02:40.347Z,9.27
2019-05-14T03:05:09.908Z,9.26
2019-05-14T03:07:38.984Z,9.26
2019-05-14T03:10:03.873Z,9.26
2019-05-14T03:12:30.527Z,9.26
2019-05-14T03:14:58.867Z,9.26
2019-05-14T03:17:25.679Z,9.27
2019-05-14T03:19:52.307Z,9.27
2019-05-14T03:22:26.349Z,9.26
2019-05-14T03:24:50.000Z,9.26
2019-05-14T03:27:19.145Z,9.27
2019-05-14T03:29:43.914Z,9.27
2019-05-14T03:32:13.110Z,9.27
2019-05-14T03:34:43.346Z,9.26
2019-05-14T03:37:13.206Z,9.27
2019-05-14T03:39:35.484Z,9.29
2019-05-14T03:42:02.057Z,9.29
2019-05-14T03:44:29.144Z,9.30
2019-05-14T03:47:03.752Z,9.29
2019-05-14T03:49:24.314Z,9.28
2019-05-14T03:51:50.934Z,9.28
2019-05-14T03:54:19.542Z,9.30
2019-05-14T03:56:45.940Z,9.31
2019-05-14T03:59:13.392Z,9.33
2019-05-14T04:01:40.389Z,9.33
2019-05-14T04:04:10.256Z,9.34
2019-05-14T04:06:35.409Z,9.35
2019-05-14T04:09:01.999Z,9.35
2019-05-14T04:11:29.481Z,9.37
2019-05-14T04:13:56.273Z,9.38
2019-05-14T04:16:22.874Z,9.37
2019-05-14T04:18:50.405Z,9.37
2019-05-14T04:21:20.392Z,9.38
2019-05-14T04:23:45.533Z,9.38
2019-05-14T04:26:12.176Z,9.38
2019-05-14T04:28:39.436Z,9.37
2019-05-14T04:31:06.086Z,9.38
2019-05-14T04:33:32.669Z,9.40
2019-05-14T04:36:00.099Z,9.42
2019-05-14T04:38:30.011Z,9.42
2019-05-14T04:40:55.476Z,9.43
2019-05-14T04:43:22.050Z,9.44
2019-05-14T04:45:49.633Z,9.46
2019-05-14T04:48:31.030Z,9.47
2019-05-14T04:50:45.036Z,9.49
2019-05-14T04:53:11.604Z,9.51
2019-05-14T04:55:40.113Z,9.53
2019-05-14T04:58:09.805Z,9.55
2019-05-14T05:00:34.869Z,9.57
2019-05-14T05:03:01.441Z,9.59
2019-05-14T05:05:29.953Z,9.62
2019-05-14T05:07:59.418Z,9.65
2019-05-14T05:10:24.666Z,9.67
2019-05-14T05:12:51.239Z,9.71
2019-05-14T05:15:19.797Z,9.73
2019-05-14T05:17:51.867Z,9.76
2019-05-14T05:20:14.425Z,9.79
2019-05-14T05:22:41.021Z,9.83
2019-05-14T05:25:08.367Z,9.86
2019-05-14T05:27:35.092Z,9.87
2019-05-14T05:30:01.672Z,9.90
2019-05-14T05:32:28.648Z,9.90
2019-05-14T05:34:55.329Z,9.89
2019-05-14T05:37:21.929Z,9.88
2019-05-14T05:39:49.220Z,9.90
2019-05-14T05:42:18.577Z,9.91
2019-05-14T05:44:44.347Z,9.90
2019-05-14T05:47:10.948Z,9.91
2019-05-14T05:49:38.188Z,9.95
2019-05-14T05:52:05.004Z,10.00
2019-05-14T05:54:31.580Z,10.04
2019-05-14T05:56:58.335Z,10.10
2019-05-14T05:59:25.175Z,10.12
2019-05-14T06:01:54.265Z,10.17
2019-05-14T06:04:20.098Z,10.21
2019-05-14T06:06:48.308Z,10.23
2019-05-14T06:09:15.037Z,10.25
2019-05-14T06:11:41.659Z,10.27
2019-05-14T06:14:08.450Z,10.29
2019-05-14T06:16:35.110Z,10.30
2019-05-14T06:19:01.684Z,10.31
2019-05-14T06:21:29.211Z,10.33
2019-05-14T06:23:58.103Z,10.33
2019-05-14T06:26:24.365Z,10.36
2019-05-14T06:28:50.966Z,10.37
2019-05-14T06:31:19.327Z,10.37
2019-05-14T06:33:48.412Z,10.38
2019-05-14T06:36:14.711Z,10.39
2019-05-14T06:38:41.562Z,10.37
2019-05-14T06:41:08.387Z,10.37
2019-05-14T06:43:35.222Z,10.36
2019-05-14T06:46:01.805Z,10.36
2019-05-14T06:48:34.322Z,10.37
2019-05-14T06:50:58.337Z,10.39
2019-05-14T06:53:25.207Z,10.41
2019-05-14T06:55:51.783Z,10.45
2019-05-14T06:58:20.122Z,10.47
2019-05-14T07:00:49.308Z,10.52
2019-05-14T07:03:15.062Z,10.54
2019-05-14T07:05:41.656Z,10.55
2019-05-14T07:08:09.116Z,10.56
2019-05-14T07:10:35.785Z,10.57
2019-05-14T07:13:02.409Z,10.60
2019-05-14T07:15:29.168Z,10.61
2019-05-14T07:17:58.266Z,10.62
2019-05-14T07:20:24.058Z,10.61
2019-05-14T07:22:50.956Z,10.62
2019-05-14T07:25:18.373Z,10.63
2019-05-14T07:27:45.221Z,10.62
2019-05-14T07:30:11.801Z,10.63
2019-05-14T07:32:39.524Z,10.64
2019-05-14T07:35:08.938Z,10.65
2019-05-14T07:37:34.835Z,10.65
2019-05-14T07:40:01.437Z,10.64
2019-05-14T07:42:28.924Z,10.64
2019-05-14T07:44:55.699Z,10.65
2019-05-14T07:47:22.312Z,10.70
2019-05-14T07:52:33.086Z,10.72
2019-05-14T08:00:31.065Z,10.77
2019-05-14T08:05:30.053Z,10.83
2019-05-14T08:07:58.489Z,10.85
2019-05-14T08:10:25.005Z,10.87
2019-05-14T08:18:18.679Z,10.92
2019-05-14T08:20:44.486Z,10.93
2019-05-14T08:23:11.094Z,10.93
2019-05-14T08:25:39.006Z,10.93
2019-05-14T08:28:07.951Z,10.93
2019-05-14T08:30:34.171Z,10.95
2019-05-14T08:33:00.783Z,10.96
2019-05-14T08:35:29.024Z,11.01
2019-05-14T08:38:05.540Z,11.08
2019-05-14T08:40:24.029Z,11.16
2019-05-14T08:42:50.673Z,11.22
2019-05-14T08:45:18.992Z,11.28
2019-05-14T08:47:48.116Z,11.32
2019-05-14T08:50:14.038Z,11.37
2019-05-14T08:52:40.667Z,11.41
2019-05-14T08:55:11.003Z,11.44
2019-05-14T08:57:38.491Z,11.47
2019-05-14T09:00:04.020Z,11.50
2019-05-14T09:02:30.664Z,11.51
2019-05-14T09:05:03.327Z,11.53
2019-05-14T09:07:25.652Z,11.55
2019-05-14T09:09:52.245Z,11.57
2019-05-14T09:12:18.947Z,11.60
2019-05-14T09:14:48.093Z,11.64
2019-05-14T09:17:14.899Z,11.68
2019-05-14T09:19:57.573Z,11.67
2019-05-14T09:22:10.040Z,11.68
2019-05-14T09:24:38.790Z,11.70
2019-05-14T09:27:05.570Z,11.70
2019-05-14T09:29:32.428Z,11.71
2019-05-14T09:31:59.358Z,11.70
2019-05-14T09:34:28.800Z,11.71
2019-05-14T09:36:54.488Z,11.71
2019-05-14T09:39:21.118Z,11.70
2019-05-14T09:41:48.248Z,11.68
2019-05-14T09:44:18.579Z,11.67
2019-05-14T09:46:44.455Z,11.65
2019-05-14T09:49:11.046Z,11.61
2019-05-14T09:51:38.416Z,11.54
2019-05-14T09:54:05.295Z,11.52
2019-05-14T09:56:31.871Z,11.50
2019-05-14T09:58:58.771Z,11.49
2019-05-14T10:01:25.544Z,11.46
2019-05-14T10:03:52.157Z,11.46
2019-05-14T10:06:20.698Z,11.46
2019-05-14T10:08:48.531Z,11.46
2019-05-14T10:11:15.328Z,11.48
2019-05-14T10:13:42.090Z,11.49
2019-05-14T10:16:09.473Z,11.49
2019-05-14T10:18:38.035Z,11.47
2019-05-14T10:21:04.829Z,11.48
2019-05-14T10:23:31.445Z,11.46
2019-05-14T10:25:58.221Z,11.47
2019-05-14T10:28:25.024Z,11.46
2019-05-14T10:30:51.597Z,11.45
2019-05-14T10:33:18.969Z,11.44
2019-05-14T10:35:48.183Z,11.43
2019-05-14T10:38:13.894Z,11.45
2019-05-14T10:40:40.461Z,11.47
2019-05-14T10:43:09.189Z,11.51
2019-05-14T10:45:35.368Z,11.55
2019-05-14T10:48:02.004Z,11.60
2019-05-14T10:50:29.025Z,11.66
2019-05-14T10:52:55.697Z,11.69
2019-05-14T10:55:22.291Z,11.74
2019-05-14T10:57:53.906Z,11.80
2019-05-14T11:00:18.605Z,11.86
2019-05-14T11:02:45.353Z,11.92
2019-05-14T11:05:11.965Z,11.97
2019-05-14T11:07:41.800Z,12.02
2019-05-14T11:10:09.033Z,12.06
2019-05-14T11:12:35.263Z,12.10
2019-05-14T11:15:01.911Z,12.11
2019-05-14T11:17:29.019Z,12.12
2019-05-14T11:19:55.989Z,12.10
2019-05-14T11:22:22.566Z,12.09
2019-05-14T11:24:49.361Z,12.06
2019-05-14T11:27:18.462Z,12.06
2019-05-14T11:29:44.403Z,12.04
2019-05-14T11:32:10.980Z,12.02
2019-05-14T11:34:39.031Z,12.00
2019-05-14T11:37:08.365Z,11.96
2019-05-14T11:39:34.283Z,11.90
2019-05-14T11:42:00.928Z,11.83
2019-05-14T11:44:28.614Z,11.77
2019-05-14T11:46:57.857Z,11.72
2019-05-14T11:49:23.845Z,11.69
2019-05-14T11:52:10.517Z,11.67
2019-05-14T11:54:22.771Z,11.67
2019-05-14T11:56:48.286Z,11.71
2019-05-14T11:59:15.053Z,11.75
2019-05-14T12:01:41.727Z,11.84
2019-05-14T12:04:09.136Z,11.91
2019-05-14T12:06:38.786Z,11.99
2019-05-14T12:09:04.240Z,12.08
2019-05-14T12:11:30.815Z,12.17
2019-05-14T12:13:59.818Z,12.26
2019-05-14T12:16:28.892Z,12.33
2019-05-14T12:18:54.078Z,12.39
2019-05-14T12:21:21.842Z,12.44
2019-05-14T12:23:48.410Z,12.49
2019-05-14T12:26:15.024Z,12.53
2019-05-14T12:28:41.603Z,12.53
2019-05-14T12:31:09.371Z,12.54
2019-05-14T12:33:36.300Z,12.55
2019-05-14T12:36:02.912Z,12.55
2019-05-14T12:38:29.783Z,12.54
2019-05-14T12:40:58.491Z,12.54
2019-05-14T12:43:24.778Z,12.52
2019-05-14T12:45:51.963Z,12.52
2019-05-14T12:48:18.904Z,12.52
2019-05-14T12:50:48.661Z,12.52
2019-05-14T12:53:14.258Z,12.51
2019-05-14T12:55:40.881Z,12.52
2019-05-14T12:58:08.256Z,12.51
2019-05-14T13:00:35.057Z,12.50
2019-05-14T13:03:01.651Z,12.51
2019-05-14T13:05:29.304Z,12.50
2019-05-14T13:07:58.040Z,12.50
2019-05-14T13:10:24.769Z,12.51
2019-05-14T13:12:51.341Z,12.51
2019-05-14T13:15:20.201Z,12.52
2019-05-14T13:17:48.389Z,12.51
2019-05-14T13:20:14.582Z,12.50
2019-05-14T13:22:45.931Z,12.49
2019-05-14T13:25:10.979Z,12.47
2019-05-14T13:27:39.201Z,12.46
2019-05-14T13:30:08.886Z,12.45
2019-05-14T13:32:34.356Z,12.45
2019-05-14T13:35:00.973Z,12.44
2019-05-14T13:37:28.816Z,12.43
2019-05-14T13:39:55.519Z,12.40
2019-05-14T13:42:22.103Z,12.36
2019-05-14T13:44:48.715Z,12.32
2019-05-14T13:47:15.283Z,12.27
2019-05-14T13:49:41.904Z,12.23
2019-05-14T13:52:09.307Z,12.20
2019-05-14T13:54:36.197Z,12.18
2019-05-14T13:57:02.775Z,12.14
2019-05-14T13:59:29.363Z,12.10
2019-05-14T14:01:58.814Z,12.10
2019-05-14T14:04:24.267Z,12.06
2019-05-14T14:06:50.974Z,12.06
2019-05-14T14:09:17.682Z,12.03
2019-05-14T14:11:44.293Z,12.01
2019-05-14T14:14:10.875Z,12.00
2019-05-14T14:16:39.613Z,11.97
2019-05-14T14:19:08.597Z,11.95
2019-05-14T14:21:34.175Z,11.94
2019-05-14T14:24:00.748Z,11.92
2019-05-14T14:26:29.102Z,11.92
2019-05-14T14:28:55.642Z,11.91
2019-05-14T14:31:22.251Z,11.89
2019-05-14T14:33:49.040Z,11.89
2019-05-14T14:36:15.711Z,11.89
2019-05-14T14:38:42.282Z,11.89
2019-05-14T14:41:10.197Z,11.88
2019-05-14T14:43:42.411Z,11.87
2019-05-14T14:46:13.097Z,11.86
2019-05-14T14:48:33.839Z,11.86
2019-05-14T14:51:00.453Z,11.86
2019-05-14T14:53:46.094Z,11.86
2019-05-14T14:55:55.363Z,11.85
2019-05-14T14:58:21.941Z,11.86
2019-05-14T15:00:48.853Z,11.84
2019-05-14T15:03:15.617Z,11.84
2019-05-14T15:05:42.277Z,11.83
2019-05-14T15:08:10.234Z,11.83
2019-05-14T15:10:39.512Z,11.84
2019-05-14T15:13:05.561Z,11.83
2019-05-14T15:15:32.525Z,11.84
2019-05-14T15:17:59.231Z,11.86
2019-05-14T15:20:28.799Z,11.85
2019-05-14T15:22:54.150Z,11.84
2019-05-14T15:25:20.729Z,11.82
2019-05-14T15:27:49.021Z,11.80
2019-05-14T15:30:15.623Z,11.77
2019-05-14T15:32:42.238Z,11.75
2019-05-14T15:35:10.581Z,11.73
2019-05-14T15:37:42.235Z,11.71
2019-05-14T15:40:05.475Z,11.69
2019-05-14T15:42:32.068Z,11.67
2019-05-14T15:44:59.729Z,11.67
2019-05-14T15:47:26.753Z,11.68
2019-05-14T15:49:53.321Z,11.70
2019-05-14T15:52:19.929Z,11.72
2019-05-14T15:54:48.024Z,11.73
2019-05-14T15:57:14.831Z,11.74
2019-05-14T15:59:41.402Z,11.72
2019-05-14T16:02:09.456Z,11.71
2019-05-14T16:04:38.882Z,11.70
2019-05-14T16:07:04.489Z,11.70
2019-05-14T16:09:31.359Z,11.70
2019-05-14T16:11:58.922Z,11.71
2019-05-14T16:14:25.708Z,11.72
2019-05-14T16:16:52.319Z,11.71
2019-05-14T16:19:19.161Z,11.70
2019-05-14T16:21:45.824Z,11.71
2019-05-14T16:24:12.398Z,11.71
2019-05-14T16:26:39.016Z,11.72
2019-05-14T16:29:05.582Z,11.71
2019-05-14T16:31:32.197Z,11.70
2019-05-14T16:33:58.780Z,11.71
2019-05-14T16:36:25.483Z,11.72
2019-05-14T16:38:52.062Z,11.73
2019-05-14T16:41:18.682Z,11.72
2019-05-14T16:43:45.353Z,11.73
2019-05-14T16:46:11.963Z,11.73
2019-05-14T16:48:39.668Z,11.72
2019-05-14T16:51:09.134Z,11.69
2019-05-14T16:53:37.833Z,11.68
2019-05-14T16:56:04.489Z,11.68
2019-05-14T16:58:32.136Z,11.66
2019-05-14T17:00:58.902Z,11.66
2019-05-14T17:03:25.609Z,11.66
2019-05-14T17:05:52.184Z,11.66
2019-05-14T17:08:19.246Z,11.64
2019-05-14T17:10:48.063Z,11.64
2019-05-14T17:13:14.201Z,11.63
2019-05-14T17:15:40.772Z,11.60
2019-05-14T17:18:08.894Z,11.57
2019-05-14T17:20:35.640Z,11.53
2019-05-14T17:23:02.256Z,11.51
2019-05-14T17:25:30.450Z,11.48
2019-05-14T17:27:59.430Z,11.48
2019-05-14T17:30:25.597Z,11.44
2019-05-14T17:32:52.282Z,11.44
2019-05-14T17:35:19.560Z,11.42
2019-05-14T17:37:48.304Z,11.41
2019-05-14T17:40:14.724Z,11.39
2019-05-14T17:42:41.317Z,11.38
2019-05-14T17:45:08.223Z,11.36
2019-05-14T17:47:34.885Z,11.35
2019-05-14T17:50:01.467Z,11.36
2019-05-14T17:52:30.133Z,11.38
2019-05-14T17:54:56.356Z,11.39
2019-05-14T17:57:25.264Z,11.39
2019-05-14T17:59:51.283Z,11.39
2019-05-14T18:02:19.108Z,11.41
2019-05-14T18:04:45.851Z,11.42
2019-05-14T18:07:14.193Z,11.42
2019-05-14T18:09:40.876Z,11.44
2019-05-14T18:12:08.199Z,11.45
2019-05-14T18:14:34.932Z,11.45
2019-05-14T18:17:01.556Z,11.44
2019-05-14T18:19:28.932Z,11.44
2019-05-14T18:21:55.810Z,11.44
2019-05-14T18:24:22.386Z,11.43
2019-05-14T18:26:49.005Z,11.43
2019-05-14T18:29:15.586Z,11.41
2019-05-14T18:31:45.080Z,11.39
2019-05-14T18:34:10.503Z,11.38
2019-05-14T18:36:39.526Z,11.36
2019-05-14T18:39:05.706Z,11.33
2019-05-14T18:41:32.327Z,11.33
2019-05-14T18:43:59.027Z,11.30
2019-05-14T18:46:28.340Z,11.29
2019-05-14T18:48:55.072Z,11.27
2019-05-14T18:51:21.661Z,11.26
2019-05-14T18:53:49.092Z,11.24
2019-05-14T18:56:23.387Z,11.21
2019-05-14T18:58:44.261Z,11.21
2019-05-14T19:01:10.841Z,11.21
2019-05-14T19:03:39.603Z,11.20
2019-05-14T19:06:05.763Z,11.19
2019-05-14T19:08:32.369Z,11.17
2019-05-14T19:10:59.464Z,11.17
2019-05-14T19:13:28.179Z,11.15
2019-05-14T19:15:54.610Z,11.13
2019-05-14T19:18:21.212Z,11.13
2019-05-14T19:20:48.568Z,11.10
2019-05-14T19:23:15.386Z,11.10
2019-05-14T19:25:41.962Z,11.09
2019-05-14T19:28:08.961Z,11.10
2019-05-14T19:30:37.979Z,11.11
2019-05-14T19:33:04.045Z,11.11
2019-05-14T19:35:30.653Z,11.12
2019-05-14T19:37:59.360Z,11.13
2019-05-14T19:40:28.069Z,11.15
2019-05-14T19:42:53.922Z,11.16
2019-05-14T19:45:20.481Z,11.17
2019-05-14T19:47:49.369Z,11.18
2019-05-14T19:50:15.746Z,11.19
2019-05-14T19:52:42.352Z,11.21
2019-05-14T19:55:08.935Z,11.22
2019-05-14T19:57:35.543Z,11.22
2019-05-14T20:00:02.130Z,11.24
2019-05-14T20:02:28.770Z,11.25
2019-05-14T20:04:55.384Z,11.27
2019-05-14T20:07:21.958Z,11.29
2019-05-14T20:09:48.924Z,11.29
2019-05-14T20:12:15.497Z,11.30
2019-05-14T20:14:42.121Z,11.31
2019-05-14T20:17:09.051Z,11.30
2019-05-14T20:19:35.807Z,11.32
2019-05-14T20:22:02.385Z,11.32
2019-05-14T20:24:28.979Z,11.34
2019-05-14T20:27:05.797Z,11.37
2019-05-14T20:29:24.013Z,11.36
2019-05-14T20:31:50.611Z,11.39
2019-05-14T20:34:19.133Z,11.39
2019-05-14T20:36:45.538Z,11.40
2019-05-14T20:39:12.152Z,11.41
2019-05-14T20:41:38.814Z,11.43
2019-05-14T20:44:05.424Z,11.44
2019-05-14T20:46:31.997Z,11.44
2019-05-14T20:48:59.262Z,11.44
2019-05-14T20:51:27.620Z,11.45
2019-05-14T20:53:54.205Z,11.43
2019-05-14T20:56:20.776Z,11.43
2019-05-14T20:58:48.148Z,11.43
2019-05-14T21:01:14.883Z,11.44
2019-05-14T21:03:44.021Z,11.43
2019-05-14T21:06:09.871Z,11.41
2019-05-14T21:08:38.003Z,11.39
2019-05-14T21:11:04.743Z,11.36
2019-05-14T21:13:31.357Z,11.32
2019-05-14T21:15:57.987Z,11.31
2019-05-14T21:18:34.647Z,11.27
2019-05-14T21:20:52.999Z,11.24
2019-05-14T21:23:19.596Z,11.23
2019-05-14T21:25:48.195Z,11.22
2019-05-14T21:28:14.551Z,11.21
2019-05-14T21:30:41.131Z,11.20
2019-05-14T21:33:08.371Z,11.19
2019-05-14T21:35:35.196Z,11.20
2019-05-14T21:38:01.765Z,11.19
2019-05-14T21:40:29.146Z,11.20
2019-05-14T21:42:56.662Z,11.20
2019-05-14T21:45:23.274Z,11.20
2019-05-14T21:47:49.866Z,11.21
2019-05-14T21:50:18.159Z,11.21
2019-05-14T21:52:44.835Z,11.22
2019-05-14T21:55:11.440Z,11.23
2019-05-14T21:57:39.643Z,11.24
2019-05-14T22:00:08.327Z,11.25
2019-05-14T22:02:34.688Z,11.25
2019-05-14T22:05:01.501Z,11.24
2019-05-14T22:07:28.346Z,11.25
2019-05-14T22:09:54.960Z,11.24
2019-05-14T22:12:21.559Z,11.23
2019-05-14T22:14:48.254Z,11.23
2019-05-14T22:17:14.816Z,11.23
2019-05-14T22:19:41.425Z,11.24
2019-05-14T22:22:08.144Z,11.24
2019-05-14T22:24:34.804Z,11.25
2019-05-14T22:27:01.372Z,11.27
2019-05-14T22:29:28.579Z,11.26
2019-05-14T22:31:55.319Z,11.27
2019-05-14T22:34:21.934Z,11.26
2019-05-14T22:36:48.606Z,11.29
2019-05-14T22:39:15.319Z,11.29
2019-05-14T22:41:41.897Z,11.28
2019-05-14T22:44:09.560Z,11.29
2019-05-14T22:46:39.966Z,11.29
2019-05-14T22:49:04.788Z,11.29
2019-05-14T22:51:33.183Z,11.28
2019-05-14T22:53:59.674Z,11.27
2019-05-14T22:56:28.045Z,11.27
2019-05-14T22:58:54.575Z,11.27
2019-05-14T23:01:21.150Z,11.28
2019-05-14T23:03:48.965Z,11.28
2019-05-14T23:06:15.940Z,11.27
2019-05-14T23:08:42.571Z,11.28
2019-05-14T23:11:09.168Z,11.28
2019-05-14T23:13:35.740Z,11.28
2019-05-14T23:16:02.327Z,11.29
2019-05-14T23:18:28.902Z,11.30
2019-05-14T23:20:55.505Z,11.30
2019-05-14T23:23:22.076Z,11.30
2019-05-14T23:25:48.685Z,11.31
2019-05-14T23:28:15.263Z,11.31
2019-05-14T23:30:41.875Z,11.32
2019-05-14T23:33:08.460Z,11.32
2019-05-14T23:35:35.068Z,11.32
2019-05-14T23:38:01.645Z,11.31
2019-05-14T23:40:29.102Z,11.32
2019-05-14T23:42:58.606Z,11.31
2019-05-14T23:45:24.043Z,11.31
2019-05-14T23:47:50.643Z,11.30
2019-05-14T23:50:17.241Z,11.30
2019-05-14T23:52:43.856Z,11.29
2019-05-14T23:55:10.436Z,11.29
2019-05-14T23:57:37.068Z,11.28
